Time;durP1;ratioP1;P1;durP2;ratioP2;P2;SDS_P1;SDS_P2;PMS_P1;PMS_P2;Temp;Humidity;BMP_temperature;BMP_pressure;BME280_temperature;BME280_humidity;BME280_pressure;Samples;Min_cycle;Max_cycle;Signal;HPM_P1;HPM_P2
2020/12/07 00:01:25;;;;;;;15.38;13.73;;;7.20;76.00;;;;;;5029189;28;20079;-78
2020/12/07 00:03:51;;;;;;;16.95;14.20;;;7.20;76.00;;;;;;5028863;28;20035;-78
2020/12/07 00:06:18;;;;;;;14.68;13.18;;;7.20;76.00;;;;;;5028539;28;20461;-77
2020/12/07 00:08:45;;;;;;;15.18;13.65;;;7.20;76.00;;;;;;5028326;28;20109;-78
2020/12/07 00:11:11;;;;;;;18.35;13.45;;;7.20;76.00;;;;;;5029011;28;20029;-77
2020/12/07 00:13:37;;;;;;;14.85;13.18;;;7.20;76.00;;;;;;5028526;28;20488;-77
2020/12/07 00:16:06;;;;;;;14.55;12.90;;;7.20;76.00;;;;;;5027055;28;20064;-77
2020/12/07 00:18:32;;;;;;;14.75;13.25;;;7.20;76.00;;;;;;5026882;28;20118;-78
2020/12/07 00:20:58;;;;;;;14.57;12.68;;;7.20;76.00;;;;;;5026762;28;20021;-78
2020/12/07 00:23:24;;;;;;;15.18;13.60;;;7.20;76.00;;;;;;5026943;28;20069;-78
2020/12/07 00:25:50;;;;;;;15.02;12.65;;;7.20;76.10;;;;;;5028011;28;20109;-77
2020/12/07 00:28:16;;;;;;;16.65;13.35;;;7.20;76.10;;;;;;5027626;28;20029;-78
2020/12/07 00:30:42;;;;;;;13.57;11.80;;;7.20;76.60;;;;;;5027933;28;20033;-78
2020/12/07 00:33:08;;;;;;;16.70;14.20;;;7.20;76.10;;;;;;5026324;28;20117;-77
2020/12/07 00:35:34;;;;;;;15.00;12.50;;;7.20;76.10;;;;;;5028035;28;20053;-77
2020/12/07 00:38:00;;;;;;;15.90;14.02;;;7.10;75.90;;;;;;5027009;28;20464;-77
2020/12/07 00:40:26;;;;;;;15.27;13.68;;;7.10;75.90;;;;;;5027503;28;20021;-77
2020/12/07 00:42:52;;;;;;;15.45;13.07;;;7.10;76.00;;;;;;5027632;28;20037;-77
2020/12/07 00:45:20;;;;;;;15.40;13.70;;;7.10;76.00;;;;;;5026483;28;20049;-77
2020/12/07 00:47:46;;;;;;;15.88;13.23;;;7.10;76.00;;;;;;5026479;28;20060;-77
2020/12/07 00:50:12;;;;;;;15.13;13.52;;;7.10;76.00;;;;;;5025862;28;20037;-77
2020/12/07 00:52:38;;;;;;;15.55;13.80;;;7.10;76.00;;;;;;5026631;28;20174;-77
2020/12/07 00:55:05;;;;;;;13.95;12.55;;;7.10;76.60;;;;;;5025581;28;20041;-77
2020/12/07 00:57:31;;;;;;;16.40;14.52;;;7.10;76.00;;;;;;5026125;28;20364;-77
2020/12/07 00:59:57;;;;;;;15.15;12.68;;;7.20;76.20;;;;;;5009175;28;20120;-77
2020/12/07 01:02:24;;;;;;;16.52;13.70;;;7.10;76.00;;;;;;5027303;28;20116;-77
2020/12/07 01:04:50;;;;;;;15.65;14.10;;;7.10;76.00;;;;;;5026920;28;20136;-77
2020/12/07 01:07:16;;;;;;;15.05;13.48;;;7.10;76.00;;;;;;5027035;28;20026;-77
2020/12/07 01:09:46;;;;;;;16.70;15.02;;;7.10;76.00;;;;;;5027122;28;20079;-77
2020/12/07 01:12:13;;;;;;;17.45;13.80;;;7.10;76.00;;;;;;5026118;28;20346;-77
2020/12/07 01:14:46;;;;;;;16.02;14.32;;;7.10;76.10;;;;;;5025856;28;20036;-77
2020/12/07 01:17:13;;;;;;;15.45;13.65;;;7.10;76.10;;;;;;5026743;28;20531;-77
2020/12/07 01:19:39;;;;;;;15.82;14.32;;;7.10;76.10;;;;;;5009183;28;20060;-77
2020/12/07 01:22:08;;;;;;;16.92;15.10;;;7.10;76.10;;;;;;5009446;28;20113;-78
2020/12/07 01:24:37;;;;;;;15.13;13.55;;;7.10;76.10;;;;;;5025404;28;20436;-78
2020/12/07 01:27:04;;;;;;;16.33;14.10;;;7.10;76.10;;;;;;4992934;28;20044;-78
2020/12/07 01:29:30;;;;;;;17.23;14.65;;;7.10;76.10;;;;;;5024920;28;20040;-78
2020/12/07 01:31:56;;;;;;;17.25;15.50;;;7.10;76.10;;;;;;5025785;28;20065;-78
2020/12/07 01:34:22;;;;;;;17.15;14.23;;;7.10;76.10;;;;;;5008851;28;20026;-78
2020/12/07 01:36:48;;;;;;;16.10;14.52;;;7.00;75.90;;;;;;5025407;28;20101;-77
2020/12/07 01:39:16;;;;;;;19.60;15.23;;;7.00;75.90;;;;;;5025494;28;20065;-77
2020/12/07 01:41:42;;;;;;;18.70;14.75;;;7.10;76.10;;;;;;5025392;28;20367;-77
2020/12/07 01:44:09;;;;;;;16.08;14.52;;;7.00;75.90;;;;;;5009338;28;20473;-78
2020/12/07 01:46:36;;;;;;;16.90;15.18;;;7.00;76.00;;;;;;5008347;28;20488;-77
2020/12/07 01:49:04;;;;;;;16.33;14.48;;;7.00;76.00;;;;;;5008822;28;20061;-77
2020/12/07 01:51:32;;;;;;;17.02;14.88;;;7.00;76.00;;;;;;5009024;28;20037;-77
2020/12/07 01:53:58;;;;;;;17.90;14.50;;;7.00;76.00;;;;;;5024972;28;20021;-77
2020/12/07 01:56:29;;;;;;;16.30;14.55;;;7.00;76.00;;;;;;5025457;28;20057;-78
2020/12/07 01:59:00;;;;;;;16.65;14.15;;;7.00;76.00;;;;;;5024463;28;20025;-78
2020/12/07 02:01:36;;;;;;;16.67;14.40;;;7.00;76.00;;;;;;5024516;28;20033;-77
2020/12/07 02:04:03;;;;;;;17.90;16.02;;;7.00;75.90;;;;;;5024964;28;20390;-76
2020/12/07 02:06:28;;;;;;;16.52;14.75;;;7.10;76.10;;;;;;5026302;28;20120;-76
2020/12/07 02:08:55;;;;;;;17.17;15.35;;;7.00;75.90;;;;;;5025011;28;20064;-77
2020/12/07 02:11:24;;;;;;;16.85;15.05;;;7.00;75.90;;;;;;5025869;28;20241;-77
2020/12/07 02:13:50;;;;;;;19.02;15.63;;;7.00;76.00;;;;;;5024851;28;20033;-77
2020/12/07 02:16:17;;;;;;;17.75;15.23;;;7.00;76.00;;;;;;5025254;28;20087;-76
2020/12/07 02:18:58;;;;;;;20.10;16.55;;;7.00;76.00;;;;;;5024812;28;20056;-76
2020/12/07 02:21:25;;;;;;;16.02;14.18;;;7.00;76.00;;;;;;5025007;28;20083;-76
2020/12/07 02:24:17;;;;;;;16.70;14.90;;;7.00;76.00;;;;;;5024572;28;20064;-77
2020/12/07 02:26:51;;;;;;;14.88;13.38;;;7.00;76.00;;;;;;5024633;28;20124;-76
2020/12/07 02:29:17;;;;;;;18.25;16.08;;;7.00;76.00;;;;;;5024608;28;20107;-77
2020/12/07 02:31:51;;;;;;;;;;;7.00;76.00;;;;;;5025524;28;20639;-77
2020/12/07 02:34:20;;;;;;;15.70;13.93;;;7.00;76.00;;;;;;5024702;28;19984;-76
2020/12/07 02:36:49;;;;;;;19.60;16.45;;;7.00;75.90;;;;;;5008709;28;20088;-77
2020/12/07 02:39:20;;;;;;;19.63;15.63;;;7.00;76.00;;;;;;5025816;28;20077;-77
2020/12/07 02:41:51;;;;;;;23.52;18.05;;;6.90;75.80;;;;;;5024577;28;20052;-77
2020/12/07 02:44:18;;;;;;;18.55;15.98;;;6.90;75.80;;;;;;5024218;28;20052;-76
2020/12/07 02:46:47;;;;;;;19.30;16.67;;;6.90;75.90;;;;;;5002773;28;20047;-78
2020/12/07 02:49:16;;;;;;;22.65;17.42;;;6.90;75.90;;;;;;5023838;28;20033;-77
2020/12/07 02:51:49;;;;;;;22.17;16.90;;;6.90;75.90;;;;;;4991997;28;20442;-77
2020/12/07 02:54:20;;;;;;;20.30;17.60;;;6.90;76.00;;;;;;4992062;28;20030;-77
2020/12/07 02:56:46;;;;;;;20.40;17.17;;;6.90;76.00;;;;;;5007670;28;20034;-76
2020/12/07 02:59:12;;;;;;;21.48;18.02;;;6.90;76.00;;;;;;5007490;28;20366;-77
2020/12/07 03:01:39;;;;;;;23.42;18.20;;;6.90;76.00;;;;;;4991646;28;20025;-77
2020/12/07 03:04:05;;;;;;;22.00;17.75;;;6.90;76.00;;;;;;5008072;28;20120;-77
2020/12/07 03:06:31;;;;;;;22.27;18.48;;;6.90;76.00;;;;;;4991647;28;20037;-77
2020/12/07 03:08:58;;;;;;;20.95;17.85;;;6.90;76.10;;;;;;5007916;28;20450;-77
2020/12/07 03:11:25;;;;;;;20.92;18.33;;;6.90;76.60;;;;;;5007700;28;20033;-78
2020/12/07 03:13:52;;;;;;;22.40;16.88;;;6.90;76.00;;;;;;5009540;28;20056;-78
2020/12/07 03:16:19;;;;;;;25.80;20.13;;;6.90;76.00;;;;;;4995671;28;20504;-78
2020/12/07 03:18:45;;;;;;;24.02;19.58;;;6.90;76.10;;;;;;4995194;28;20036;-78
2020/12/07 03:21:15;;;;;;;22.65;18.45;;;6.90;76.10;;;;;;4995909;28;20048;-78
2020/12/07 03:23:46;;;;;;;23.42;18.83;;;6.90;76.10;;;;;;4995839;28;20334;-79
2020/12/07 03:26:17;;;;;;;23.98;18.58;;;6.90;76.10;;;;;;5011370;28;20057;-78
2020/12/07 03:28:43;;;;;;;25.15;18.88;;;6.90;76.10;;;;;;5010735;28;20477;-77
2020/12/07 03:31:09;;;;;;;28.73;22.00;;;6.90;76.10;;;;;;5011196;28;20033;-78
2020/12/07 03:33:35;;;;;;;22.10;18.75;;;6.90;76.10;;;;;;5010818;28;20060;-77
2020/12/07 03:36:01;;;;;;;26.83;19.60;;;6.90;76.10;;;;;;4994980;28;20037;-78
2020/12/07 03:38:30;;;;;;;26.35;21.13;;;6.90;76.10;;;;;;4995154;28;20034;-79
2020/12/07 03:40:56;;;;;;;24.10;19.80;;;6.90;76.10;;;;;;5012343;28;20535;-79
2020/12/07 03:43:31;;;;;;;27.17;19.27;;;6.90;76.10;;;;;;5011223;28;20038;-79
2020/12/07 03:45:58;;;;;;;26.40;19.45;;;6.90;76.10;;;;;;4994457;28;20096;-78
2020/12/07 03:48:24;;;;;;;25.40;19.85;;;6.90;76.10;;;;;;5011390;28;20045;-78
2020/12/07 03:50:50;;;;;;;22.80;18.23;;;6.90;76.10;;;;;;5011115;28;20025;-78
2020/12/07 03:53:17;;;;;;;26.75;19.77;;;6.90;76.10;;;;;;5011133;28;20114;-78
2020/12/07 03:55:43;;;;;;;24.73;20.60;;;6.90;76.10;;;;;;5010768;28;20457;-77
2020/12/07 03:58:16;;;;;;;25.55;21.23;;;6.90;76.10;;;;;;5010895;28;20026;-77
2020/12/07 04:00:43;;;;;;;24.48;20.15;;;6.90;76.10;;;;;;5010561;28;20342;-77
2020/12/07 04:03:12;;;;;;;28.30;19.70;;;6.90;76.20;;;;;;5010763;28;20034;-76
2020/12/07 04:05:53;;;;;;;23.60;19.35;;;6.90;76.10;;;;;;4995032;28;20038;-76
2020/12/07 04:08:21;;;;;;;29.52;19.15;;;6.90;76.10;;;;;;4994294;28;20034;-77
2020/12/07 04:10:47;;;;;;;26.13;20.35;;;6.90;76.10;;;;;;5011981;28;20030;-77
2020/12/07 04:13:13;;;;;;;26.23;20.52;;;6.90;76.10;;;;;;5012220;28;20052;-77
2020/12/07 04:15:39;;;;;;;22.30;18.75;;;6.90;76.10;;;;;;5011897;28;20115;-78
2020/12/07 04:18:05;;;;;;;25.13;18.52;;;6.90;76.10;;;;;;5010522;28;20401;-76
2020/12/07 04:20:31;;;;;;;27.58;20.25;;;6.90;76.10;;;;;;5010762;28;20042;-78
2020/12/07 04:22:57;;;;;;;23.80;18.55;;;6.90;76.10;;;;;;5011908;28;20311;-78
2020/12/07 04:25:23;;;;;;;29.60;20.50;;;6.90;76.10;;;;;;5011116;28;20132;-75
2020/12/07 04:27:50;;;;;;;24.90;20.23;;;6.90;76.10;;;;;;5011877;28;20025;-76
2020/12/07 04:30:16;;;;;;;28.40;19.45;;;6.90;76.20;;;;;;4993058;28;20037;-77
2020/12/07 04:32:42;;;;;;;25.67;19.77;;;6.90;76.20;;;;;;5010380;28;20144;-76
2020/12/07 04:35:08;;;;;;;28.83;20.33;;;6.90;76.20;;;;;;4993688;28;20061;-77
2020/12/07 04:37:34;;;;;;;25.08;19.45;;;6.90;76.20;;;;;;5009889;28;20080;-77
2020/12/07 04:40:00;;;;;;;25.63;19.58;;;6.80;76.00;;;;;;5010190;28;20478;-77
2020/12/07 04:42:26;;;;;;;29.10;20.33;;;6.80;76.00;;;;;;5011340;28;20129;-77
2020/12/07 04:44:53;;;;;;;25.00;19.70;;;6.80;76.00;;;;;;4993066;28;20049;-77
2020/12/07 04:47:19;;;;;;;24.77;18.33;;;6.80;76.00;;;;;;5009858;28;20057;-77
2020/12/07 04:49:46;;;;;;;25.55;19.73;;;6.80;76.00;;;;;;5010748;28;20034;-76
2020/12/07 04:52:15;;;;;;;28.33;19.90;;;6.80;76.00;;;;;;5009647;28;20042;-77
2020/12/07 04:54:42;;;;;;;25.05;20.13;;;6.80;76.00;;;;;;5010999;28;20026;-78
2020/12/07 04:57:09;;;;;;;27.00;20.50;;;6.80;76.00;;;;;;5010906;28;20036;-79
2020/12/07 04:59:39;;;;;;;24.38;17.63;;;6.80;76.10;;;;;;5010628;28;20478;-77
2020/12/07 05:02:05;;;;;;;25.63;18.15;;;6.80;76.10;;;;;;5011038;28;20030;-77
2020/12/07 05:04:31;;;;;;;24.27;19.17;;;6.70;75.90;;;;;;5010635;28;20087;-78
2020/12/07 05:07:05;;;;;;;25.88;18.98;;;6.80;76.10;;;;;;5010576;28;20095;-77
2020/12/07 05:09:32;;;;;;;29.00;19.75;;;6.80;76.10;;;;;;4992846;28;20109;-77
2020/12/07 05:12:01;;;;;;;26.05;18.70;;;6.80;76.10;;;;;;5008948;28;20049;-77
2020/12/07 05:14:29;;;;;;;24.73;18.35;;;6.80;76.10;;;;;;5010315;28;20426;-77
2020/12/07 05:16:55;;;;;;;26.67;19.55;;;6.80;76.10;;;;;;5010430;28;20052;-76
2020/12/07 05:19:21;;;;;;;24.30;18.98;;;6.80;76.10;;;;;;5009963;28;20069;-76
2020/12/07 05:21:48;;;;;;;23.38;18.23;;;6.80;76.10;;;;;;5009998;28;20403;-76
2020/12/07 05:24:15;;;;;;;25.92;19.27;;;6.80;76.10;;;;;;5009953;28;20056;-76
2020/12/07 05:26:42;;;;;;;26.33;19.42;;;6.80;76.10;;;;;;5010099;28;20029;-77
2020/12/07 05:29:13;;;;;;;26.20;19.30;;;6.80;76.10;;;;;;5008317;28;20069;-77
2020/12/07 05:31:39;;;;;;;22.35;17.88;;;6.80;76.10;;;;;;5009741;28;20058;-77
2020/12/07 05:34:06;;;;;;;25.45;18.10;;;6.80;76.10;;;;;;5008276;28;20065;-76
2020/12/07 05:36:32;;;;;;;33.38;18.30;;;6.80;76.10;;;;;;5007579;28;20033;-76
2020/12/07 05:38:58;;;;;;;23.25;17.25;;;6.70;76.00;;;;;;5007992;28;20045;-78
2020/12/07 05:41:25;;;;;;;22.33;17.42;;;6.70;76.00;;;;;;5011743;28;20373;-76
2020/12/07 05:43:52;;;;;;;25.02;18.45;;;6.80;76.20;;;;;;5020873;28;20440;-77
2020/12/07 05:46:23;;;;;;;25.80;17.98;;;6.80;76.20;;;;;;5019866;28;20080;-76
2020/12/07 05:48:51;;;;;;;23.83;17.52;;;6.70;76.00;;;;;;5023417;28;20081;-77
2020/12/07 05:51:23;;;;;;;23.48;17.42;;;6.70;76.00;;;;;;5021955;28;20030;-77
2020/12/07 05:53:50;;;;;;;23.70;17.10;;;6.70;76.00;;;;;;5020550;28;20049;-77
2020/12/07 05:56:17;;;;;;;24.13;17.02;;;6.70;76.00;;;;;;5020149;28;20029;-77
2020/12/07 05:58:56;;;;;;;21.27;16.38;;;6.70;76.00;;;;;;5009778;28;20033;-75
2020/12/07 06:01:26;;;;;;;21.00;15.55;;;6.70;76.00;;;;;;5021182;28;20061;-77
2020/12/07 06:03:54;;;;;;;23.42;16.90;;;6.70;76.00;;;;;;5005553;28;20042;-77
2020/12/07 06:06:34;;;;;;;26.65;17.83;;;6.70;76.00;;;;;;5014906;28;20046;-77
2020/12/07 06:09:06;;;;;;;23.55;17.55;;;6.70;76.10;;;;;;5022966;28;20056;-77
2020/12/07 06:11:40;;;;;;;24.88;18.48;;;6.70;76.00;;;;;;5024977;28;20026;-76
2020/12/07 06:14:07;;;;;;;24.48;17.95;;;6.70;76.10;;;;;;5008468;28;20113;-77
2020/12/07 06:16:36;;;;;;;23.35;16.15;;;6.70;76.00;;;;;;5004672;28;20125;-76
2020/12/07 06:19:13;;;;;;;21.52;16.63;;;6.70;76.00;;;;;;5017451;28;20464;-78
2020/12/07 06:21:53;;;;;;;24.67;17.33;;;6.70;76.00;;;;;;5021564;28;20034;-79
2020/12/07 06:24:19;;;;;;;23.98;18.17;;;6.70;76.00;;;;;;5006254;28;20113;-79
2020/12/07 06:27:03;;;;;;;23.95;17.85;;;6.70;76.00;;;;;;5021926;28;20037;-77
2020/12/07 06:29:28;;;;;;;27.30;18.83;;;6.70;76.10;;;;;;5004607;28;20485;-76
2020/12/07 06:31:58;;;;;;;24.42;18.70;;;6.70;76.20;;;;;;5023860;28;20033;-77
2020/12/07 06:34:41;;;;;;;25.17;18.15;;;6.80;76.30;;;;;;5021242;28;20059;-78
2020/12/07 06:37:10;;;;;;;22.60;18.55;;;6.80;76.20;;;;;;5021446;28;20530;-76
2020/12/07 06:39:46;;;;;;;25.17;18.67;;;6.80;76.20;;;;;;5003924;28;20024;-78
2020/12/07 06:42:14;;;;;;;26.35;19.42;;;6.80;76.20;;;;;;5010897;28;20071;-77
2020/12/07 06:44:50;;;;;;;29.05;19.80;;;6.90;76.40;;;;;;5004830;28;20366;-77
2020/12/07 06:47:21;;;;;;;25.08;17.98;;;6.90;76.40;;;;;;5020362;28;20319;-77
2020/12/07 06:50:00;;;;;;;25.48;18.23;;;6.90;76.30;;;;;;5027556;28;20022;-78
2020/12/07 06:52:29;;;;;;;26.58;17.85;;;6.90;76.30;;;;;;5024657;28;20034;-75
2020/12/07 06:55:08;;;;;;;27.70;18.92;;;6.90;76.30;;;;;;4991579;28;20046;-77
2020/12/07 06:57:43;;;;;;;25.15;18.88;;;6.90;76.30;;;;;;4992460;28;20546;-77
2020/12/07 07:00:11;;;;;;;23.23;16.88;;;6.90;76.30;;;;;;5008066;28;20080;-77
2020/12/07 07:02:45;;;;;;;23.42;16.92;;;6.80;76.10;;;;;;5008675;28;20109;-76
2020/12/07 07:05:14;;;;;;;21.80;17.15;;;6.80;76.10;;;;;;5008222;28;20179;-77
2020/12/07 07:07:40;;;;;;;21.80;16.83;;;6.80;76.10;;;;;;5019804;28;20026;-75
2020/12/07 07:10:08;;;;;;;20.58;16.67;;;6.80;76.20;;;;;;5023797;28;20192;-75
2020/12/07 07:12:35;;;;;;;26.85;17.20;;;6.70;76.00;;;;;;5009370;28;20030;-77
2020/12/07 07:15:02;;;;;;;19.80;16.50;;;6.70;76.00;;;;;;5008157;28;20030;-76
2020/12/07 07:17:30;;;;;;;19.77;16.02;;;6.70;76.10;;;;;;5021502;28;20369;-75
2020/12/07 07:19:57;;;;;;;22.73;15.88;;;6.70;76.10;;;;;;5028647;28;20460;-77
2020/12/07 07:22:24;;;;;;;24.67;16.08;;;6.70;76.10;;;;;;5029263;28;20106;-77
2020/12/07 07:30:15;;;;;;;22.27;16.98;;;6.60;76.00;;;;;;5013865;28;20508;-76
2020/12/07 07:32:44;;;;;;;23.17;17.60;;;6.70;76.10;;;;;;5027260;28;20114;-75
2020/12/07 07:35:11;;;;;;;23.15;16.52;;;6.70;76.10;;;;;;5027415;28;20021;-75
2020/12/07 07:37:39;;;;;;;19.08;15.98;;;6.60;76.00;;;;;;5010473;28;20043;-75
2020/12/07 07:40:11;;;;;;;20.88;16.17;;;6.60;76.00;;;;;;5010840;28;20030;-74
2020/12/07 07:42:44;;;;;;;19.45;16.55;;;6.60;76.00;;;;;;5024005;28;20727;-75
2020/12/07 07:45:11;;;;;;;20.75;16.55;;;6.60;76.00;;;;;;4998270;28;20042;-75
2020/12/07 07:47:46;;;;;;;20.63;16.40;;;6.60;76.00;;;;;;5002527;28;20136;-75
2020/12/07 08:06:41;;;;;;;22.27;16.45;;;6.50;75.90;;;;;;5028370;28;20136;-75
2020/12/07 08:16:59;;;;;;;22.33;15.85;;;6.40;75.70;;;;;;5026500;28;20029;-74
2020/12/07 08:19:30;;;;;;;21.52;17.23;;;6.40;75.70;;;;;;5027826;28;20035;-74
2020/12/07 08:22:18;;;;;;;18.83;16.35;;;6.40;75.70;;;;;;5026595;28;20033;-74
2020/12/07 08:25:00;;;;;;;18.80;16.13;;;6.40;75.70;;;;;;5009570;28;20562;-74
2020/12/07 08:27:34;;;;;;;22.65;17.08;;;6.40;75.70;;;;;;5026412;28;20048;-74
2020/12/07 08:30:07;;;;;;;19.60;15.32;;;6.40;75.70;;;;;;5025423;28;20025;-75
2020/12/07 08:32:33;;;;;;;19.95;15.45;;;6.50;75.90;;;;;;5026111;28;20095;-74
2020/12/07 08:35:00;;;;;;;22.15;16.90;;;6.50;75.80;;;;;;5027510;28;20033;-75
2020/12/07 08:37:26;;;;;;;19.98;16.83;;;6.50;75.80;;;;;;5026285;28;20017;-74
2020/12/07 08:39:52;;;;;;;17.42;15.05;;;6.50;75.80;;;;;;5026479;28;20083;-75
2020/12/07 08:42:21;;;;;;;20.75;17.20;;;6.50;75.80;;;;;;5027679;28;20091;-75
2020/12/07 08:44:47;;;;;;;21.23;17.55;;;6.50;75.80;;;;;;5026969;28;20164;-77
2020/12/07 08:47:14;;;;;;;19.17;16.48;;;6.50;75.80;;;;;;5027077;28;20570;-75
2020/12/07 08:49:48;;;;;;;20.30;16.23;;;6.50;75.80;;;;;;5026182;28;20116;-75
2020/12/07 08:52:14;;;;;;;21.15;16.08;;;6.50;75.80;;;;;;5027000;28;20034;-75
2020/12/07 08:54:40;;;;;;;19.90;16.75;;;6.50;75.80;;;;;;5025605;28;20029;-75
2020/12/07 08:57:06;;;;;;;20.33;16.63;;;6.60;76.00;;;;;;5027612;28;20442;-75
2020/12/07 08:59:32;;;;;;;21.50;16.60;;;6.50;75.80;;;;;;5026051;28;20406;-75
2020/12/07 09:01:58;;;;;;;21.00;17.15;;;6.50;75.80;;;;;;5017292;28;20026;-75
2020/12/07 09:04:24;;;;;;;18.83;16.17;;;6.50;75.80;;;;;;5012872;28;20033;-75
2020/12/07 09:06:53;;;;;;;21.50;17.35;;;6.60;76.00;;;;;;5014522;28;20331;-76
2020/12/07 09:09:19;;;;;;;17.90;15.40;;;6.60;75.90;;;;;;5026302;28;20033;-76
2020/12/07 09:11:46;;;;;;;20.88;17.27;;;6.60;75.80;;;;;;5027063;28;20039;-75
2020/12/07 09:14:12;;;;;;;19.35;15.27;;;6.60;75.80;;;;;;5026605;28;20025;-75
2020/12/07 09:16:38;;;;;;;22.85;17.50;;;6.60;75.70;;;;;;5025441;28;20082;-76
2020/12/07 09:19:04;;;;;;;22.48;17.25;;;6.60;75.70;;;;;;5027426;28;20057;-76
2020/12/07 09:21:30;;;;;;;23.88;17.33;;;6.60;75.70;;;;;;5027212;28;20026;-77
2020/12/07 09:23:56;;;;;;;21.83;17.38;;;6.60;75.60;;;;;;5026824;28;20034;-76
2020/12/07 09:26:22;;;;;;;19.83;16.42;;;6.60;75.70;;;;;;5017401;28;20536;-76
2020/12/07 09:28:48;;;;;;;23.48;17.17;;;6.60;75.70;;;;;;5025450;28;20195;-76
2020/12/07 09:31:14;;;;;;;20.60;16.67;;;6.60;75.60;;;;;;5026151;28;20169;-75
2020/12/07 09:33:40;;;;;;;21.58;17.02;;;6.60;75.60;;;;;;5024704;28;20034;-75
2020/12/07 09:36:06;;;;;;;23.77;17.30;;;6.60;75.60;;;;;;5026875;28;20064;-75
2020/12/07 09:38:32;;;;;;;22.15;18.33;;;6.70;75.80;;;;;;5025371;28;20389;-75
2020/12/07 09:40:59;;;;;;;22.23;17.15;;;6.70;75.80;;;;;;5026478;28;20454;-75
2020/12/07 09:43:24;;;;;;;24.38;16.98;;;6.70;75.80;;;;;;5026061;28;20156;-76
2020/12/07 09:45:50;;;;;;;21.08;16.88;;;6.70;75.80;;;;;;5024610;28;20507;-76
2020/12/07 09:48:17;;;;;;;23.48;18.13;;;6.70;75.80;;;;;;5008398;28;20037;-76
2020/12/07 09:50:42;;;;;;;21.08;17.38;;;6.70;75.80;;;;;;5025183;28;20434;-76
2020/12/07 09:53:11;;;;;;;21.35;16.65;;;6.80;76.00;;;;;;5008163;28;20117;-76
2020/12/07 09:55:38;;;;;;;22.08;16.70;;;6.80;76.00;;;;;;5026501;28;20033;-76
2020/12/07 09:58:04;;;;;;;21.65;17.08;;;6.80;76.00;;;;;;5025887;28;20025;-77
2020/12/07 10:00:30;;;;;;;21.42;17.08;;;6.90;76.20;;;;;;5026367;28;20128;-76
2020/12/07 10:02:56;;;;;;;22.35;17.17;;;6.90;76.10;;;;;;5023506;28;20504;-76
2020/12/07 10:05:22;;;;;;;19.13;16.40;;;7.00;76.20;;;;;;5023508;28;20052;-77
2020/12/07 10:07:47;;;;;;;20.33;17.58;;;7.00;76.20;;;;;;5023334;28;20029;-78
2020/12/07 10:10:13;;;;;;;20.98;17.50;;;7.10;76.30;;;;;;5026093;28;20025;-77
2020/12/07 10:12:39;;;;;;;22.83;17.98;;;7.10;76.30;;;;;;5026354;28;20108;-77
2020/12/07 10:15:06;;;;;;;22.65;17.88;;;7.20;76.40;;;;;;5023953;28;20441;-78
2020/12/07 10:17:34;;;;;;;21.00;17.58;;;7.20;76.30;;;;;;5024263;28;20090;-78
2020/12/07 10:20:00;;;;;;;21.13;18.02;;;7.30;76.50;;;;;;5024740;28;20061;-77
2020/12/07 10:22:26;;;;;;;23.20;18.45;;;7.40;76.50;;;;;;5024744;28;20505;-78
2020/12/07 10:24:52;;;;;;;22.60;18.45;;;7.50;76.60;;;;;;5024762;28;20030;-78
2020/12/07 10:27:17;;;;;;;22.23;17.88;;;7.50;76.50;;;;;;5023331;28;20580;-77
2020/12/07 10:29:43;;;;;;;22.17;18.02;;;7.60;76.60;;;;;;5024692;28;20322;-77
2020/12/07 10:32:09;;;;;;;23.48;18.30;;;7.60;76.50;;;;;;5025063;28;20450;-77
2020/12/07 10:34:37;;;;;;;21.95;18.52;;;7.70;76.60;;;;;;5024929;28;20061;-76
2020/12/07 10:37:06;;;;;;;22.98;18.45;;;7.70;76.50;;;;;;5024652;28;20025;-76
2020/12/07 10:39:32;;;;;;;20.00;17.73;;;7.80;76.70;;;;;;5024789;28;20060;-73
2020/12/07 10:41:57;;;;;;;21.13;18.00;;;7.90;76.80;;;;;;5024867;28;20025;-76
2020/12/07 10:44:25;;;;;;;21.45;17.52;;;7.90;76.80;;;;;;5022250;28;20043;-75
2020/12/07 10:46:51;;;;;;;23.67;17.70;;;8.00;77.20;;;;;;5023384;28;20049;-77
2020/12/07 10:49:17;;;;;;;24.88;19.65;;;8.10;77.10;;;;;;5024422;28;20028;-77
2020/12/07 10:51:47;;;;;;;23.48;19.73;;;8.20;77.30;;;;;;5022926;28;20099;-77
2020/12/07 10:54:13;;;;;;;21.42;19.00;;;8.30;77.40;;;;;;5024557;28;20037;-76
2020/12/07 10:56:42;;;;;;;21.83;19.17;;;8.30;77.30;;;;;;5023282;28;20544;-77
2020/12/07 10:59:08;;;;;;;22.45;19.90;;;8.40;77.30;;;;;;5022930;28;20032;-76
2020/12/07 11:01:34;;;;;;;24.08;18.67;;;8.50;77.40;;;;;;5025089;28;20029;-76
2020/12/07 11:04:00;;;;;;;22.33;18.40;;;8.60;77.40;;;;;;5024296;28;20029;-77
2020/12/07 11:06:32;;;;;;;21.63;18.65;;;8.60;77.30;;;;;;5024440;28;20107;-77
2020/12/07 11:09:03;;;;;;;21.20;18.90;;;8.60;77.20;;;;;;5023911;28;20082;-77
2020/12/07 11:11:29;;;;;;;23.77;18.90;;;8.70;77.30;;;;;;5025852;28;20493;-77
2020/12/07 11:13:55;;;;;;;22.48;19.73;;;8.80;77.40;;;;;;5023585;28;20022;-78
2020/12/07 11:16:24;;;;;;;21.55;18.90;;;8.80;77.30;;;;;;5025010;28;20405;-80
2020/12/07 11:18:51;;;;;;;21.00;18.75;;;8.80;77.20;;;;;;5024531;28;20457;-77
2020/12/07 11:21:18;;;;;;;23.80;19.55;;;8.90;77.40;;;;;;5024184;28;20030;-76
2020/12/07 11:23:46;;;;;;;20.55;18.38;;;8.90;77.30;;;;;;5025520;28;20539;-76
2020/12/07 11:26:14;;;;;;;21.77;19.48;;;8.90;77.20;;;;;;5025629;28;20048;-76
2020/12/07 11:28:40;;;;;;;21.67;18.63;;;8.90;77.10;;;;;;5023377;28;20025;-76
2020/12/07 11:31:13;;;;;;;20.98;18.77;;;8.90;77.10;;;;;;5023506;28;20444;-76
2020/12/07 11:33:40;;;;;;;20.25;18.17;;;8.90;77.10;;;;;;5023581;28;20034;-77
2020/12/07 11:36:06;;;;;;;21.27;18.27;;;8.90;77.10;;;;;;5027367;28;20570;-77
2020/12/07 11:39:08;;;;;;;20.48;18.35;;;8.90;77.00;;;;;;5029123;28;20029;-76
2020/12/07 11:46:45;;;;;;;20.20;17.95;;;8.90;76.90;;;;;;5027984;28;20310;-76
2020/12/07 11:49:11;;;;;;;21.90;19.10;;;8.90;76.90;;;;;;5028416;28;20030;-77
2020/12/07 11:51:40;;;;;;;21.27;19.02;;;8.90;76.90;;;;;;5028622;28;20033;-76
2020/12/07 11:54:06;;;;;;;20.02;17.95;;;8.90;76.80;;;;;;5028691;28;20524;-76
2020/12/07 11:56:36;;;;;;;21.02;18.83;;;8.90;76.80;;;;;;5028438;28;20072;-77
2020/12/07 11:59:03;;;;;;;22.50;18.98;;;8.90;76.80;;;;;;5028195;28;20034;-76
2020/12/07 12:01:35;;;;;;;20.75;18.55;;;8.90;76.80;;;;;;5028230;28;20030;-76
2020/12/07 12:04:03;;;;;;;21.83;19.40;;;8.90;76.70;;;;;;5028206;28;20049;-76
2020/12/07 12:06:35;;;;;;;21.92;18.63;;;8.90;76.70;;;;;;5028357;28;20073;-77
2020/12/07 12:09:04;;;;;;;19.98;17.50;;;8.90;76.70;;;;;;5009887;28;20441;-78
2020/12/07 12:11:34;;;;;;;21.00;17.52;;;8.90;76.60;;;;;;5026489;28;20364;-76
2020/12/07 12:14:01;;;;;;;20.55;17.95;;;8.90;76.60;;;;;;5028557;28;20026;-77
2020/12/07 12:16:28;;;;;;;21.15;18.85;;;8.90;76.60;;;;;;5026719;28;20025;-77
2020/12/07 12:18:54;;;;;;;20.88;18.40;;;8.90;76.60;;;;;;5027575;28;20033;-77
2020/12/07 12:21:22;;;;;;;19.85;17.77;;;8.90;76.60;;;;;;5024320;28;20418;-77
2020/12/07 12:23:48;;;;;;;21.63;18.90;;;8.90;76.50;;;;;;5025675;28;20033;-77
2020/12/07 12:26:15;;;;;;;21.88;18.27;;;8.90;76.50;;;;;;5023733;28;20064;-76
2020/12/07 12:28:41;;;;;;;20.83;18.65;;;8.90;76.50;;;;;;5025488;28;20033;-77
2020/12/07 12:31:07;;;;;;;23.10;18.88;;;8.90;76.40;;;;;;5009426;28;20452;-77
2020/12/07 12:33:33;;;;;;;21.20;18.83;;;9.00;76.60;;;;;;5026214;28;20057;-77
2020/12/07 12:35:59;;;;;;;19.98;17.88;;;9.00;76.60;;;;;;5027127;28;20037;-76
2020/12/07 12:38:25;;;;;;;21.30;19.00;;;9.00;76.60;;;;;;5026888;28;20437;-78
2020/12/07 12:40:51;;;;;;;20.33;17.35;;;9.00;76.60;;;;;;5026185;28;20123;-77
2020/12/07 12:43:17;;;;;;;19.85;17.77;;;8.90;76.40;;;;;;5025988;28;20025;-77
2020/12/07 12:45:43;;;;;;;20.98;18.77;;;8.90;76.40;;;;;;5025906;28;20099;-77
2020/12/07 12:48:09;;;;;;;20.15;18.02;;;8.90;76.40;;;;;;5025632;28;20053;-79
2020/12/07 12:50:35;;;;;;;20.20;18.17;;;8.90;76.40;;;;;;5009248;28;20033;-77
2020/12/07 12:53:02;;;;;;;22.02;19.13;;;8.90;76.40;;;;;;5025285;28;20032;-77
2020/12/07 12:55:28;;;;;;;20.77;18.58;;;8.90;76.40;;;;;;5025359;28;20049;-77
2020/12/07 12:57:54;;;;;;;21.80;18.35;;;8.80;76.30;;;;;;5027093;28;20037;-75
2020/12/07 13:00:21;;;;;;;20.38;18.15;;;8.80;76.30;;;;;;5009203;28;20102;-76
2020/12/07 13:02:47;;;;;;;20.20;18.15;;;8.80;76.30;;;;;;5025601;28;20155;-77
2020/12/07 13:05:13;;;;;;;20.73;18.42;;;8.80;76.30;;;;;;5026451;28;20049;-77
2020/12/07 13:07:39;;;;;;;21.20;18.98;;;8.80;76.30;;;;;;5025290;28;20036;-77
2020/12/07 13:10:05;;;;;;;19.75;17.73;;;8.80;76.30;;;;;;5008333;28;20491;-77
2020/12/07 13:12:31;;;;;;;21.27;18.52;;;8.80;76.30;;;;;;5008644;28;20140;-77
2020/12/07 13:14:57;;;;;;;20.33;18.13;;;8.80;76.30;;;;;;5009114;28;20505;-77
2020/12/07 13:17:27;;;;;;;19.75;17.73;;;8.80;76.30;;;;;;5025249;28;20057;-77